createdAt,value
2023-06-06T00:01:14.134Z,57.37
2023-06-06T00:03:40.799Z,57.43
2023-06-06T00:06:07.798Z,58.58
2023-06-06T00:08:34.206Z,58.41
2023-06-06T00:11:00.676Z,57.95
2023-06-06T00:13:27.540Z,58.86
2023-06-06T00:15:57.130Z,57.88
2023-06-06T00:18:23.970Z,58.13
2023-06-06T00:20:50.743Z,58.67
2023-06-06T00:23:17.263Z,58.48
2023-06-06T00:25:44.073Z,58.68
2023-06-06T00:28:10.516Z,59.51
2023-06-06T00:30:37.072Z,58.93
2023-06-06T00:33:03.973Z,59.34
2023-06-06T00:35:30.908Z,60.04
2023-06-06T00:37:57.276Z,59.04
2023-06-06T00:40:23.982Z,59.42
2023-06-06T00:42:51.091Z,59.23
2023-06-06T00:45:17.923Z,60.01
2023-06-06T00:47:45.319Z,60.06
2023-06-06T00:50:12.896Z,59.63
2023-06-06T00:52:42.326Z,59.35
2023-06-06T00:55:09.907Z,60.08
2023-06-06T00:57:37.918Z,59.46
2023-06-06T01:00:05.211Z,58.96
2023-06-06T01:02:33.574Z,59.06
2023-06-06T01:05:00.639Z,59.67
2023-06-06T01:07:27.378Z,60.36
2023-06-06T01:09:54.025Z,60.07
2023-06-06T01:12:52.925Z,60.16
2023-06-06T01:15:19.723Z,60.69
2023-06-06T01:17:46.770Z,60.45
2023-06-06T01:20:15.599Z,60.46
2023-06-06T01:22:42.857Z,59.90
2023-06-06T01:25:09.898Z,60.22
2023-06-06T01:27:36.541Z,60.61
2023-06-06T01:30:04.627Z,60.79
2023-06-06T01:32:43.376Z,60.53
2023-06-06T01:35:29.305Z,60.75
2023-06-06T01:38:24.237Z,60.00
2023-06-06T01:40:54.948Z,60.36
2023-06-06T01:43:26.496Z,60.31
2023-06-06T01:45:54.703Z,59.95
2023-06-06T01:48:21.634Z,60.28
2023-06-06T01:50:48.489Z,60.13
2023-06-06T01:53:15.069Z,59.82
2023-06-06T01:55:41.616Z,60.91
2023-06-06T01:58:08.136Z,60.29
2023-06-06T02:00:34.741Z,60.43
2023-06-06T02:03:01.938Z,60.83
2023-06-06T02:05:28.612Z,59.93
2023-06-06T02:07:55.159Z,60.12
2023-06-06T02:10:21.664Z,60.55
2023-06-06T02:12:48.500Z,60.18
2023-06-06T02:15:15.498Z,60.38
2023-06-06T02:17:42.501Z,60.29
2023-06-06T02:20:09.649Z,60.27
2023-06-06T02:22:36.233Z,60.05
2023-06-06T02:25:02.717Z,60.26
2023-06-06T02:27:29.141Z,60.48
2023-06-06T02:29:55.969Z,60.14
2023-06-06T02:32:22.805Z,60.09
2023-06-06T02:34:49.323Z,60.75
2023-06-06T02:37:16.075Z,60.73
2023-06-06T02:39:42.632Z,60.33
2023-06-06T02:42:09.256Z,60.67
2023-06-06T02:44:36.437Z,61.33
2023-06-06T02:47:03.245Z,61.79
2023-06-06T02:49:29.902Z,60.81
2023-06-06T02:51:56.877Z,60.95
2023-06-06T02:54:23.514Z,60.70
2023-06-06T02:56:50.382Z,61.08
2023-06-06T02:59:16.867Z,61.31
2023-06-06T03:01:43.547Z,60.88
2023-06-06T03:04:12.447Z,61.03
2023-06-06T03:06:39.041Z,61.51
2023-06-06T03:09:05.659Z,60.71
2023-06-06T03:11:32.562Z,61.55
2023-06-06T03:13:59.126Z,61.08
2023-06-06T03:16:25.710Z,60.97
2023-06-06T03:18:52.315Z,61.97
2023-06-06T03:21:19.073Z,61.81
2023-06-06T03:23:45.627Z,61.28
2023-06-06T03:26:12.751Z,62.08
2023-06-06T03:28:39.971Z,61.95
2023-06-06T03:31:08.295Z,61.73
2023-06-06T03:33:35.738Z,62.00
2023-06-06T03:36:02.657Z,61.67
2023-06-06T03:38:29.347Z,61.84
2023-06-06T03:40:56.056Z,62.34
2023-06-06T03:43:22.858Z,61.57
2023-06-06T03:45:49.345Z,61.76
2023-06-06T03:48:16.100Z,61.89
2023-06-06T03:50:42.590Z,62.26
2023-06-06T03:53:09.193Z,62.39
2023-06-06T03:55:35.957Z,62.28
2023-06-06T03:58:02.428Z,61.62
2023-06-06T04:00:29.156Z,62.72
2023-06-06T04:02:55.802Z,62.44
2023-06-06T04:05:22.631Z,62.75
2023-06-06T04:07:49.494Z,61.89
2023-06-06T04:10:16.191Z,62.29
2023-06-06T04:12:42.647Z,62.90
2023-06-06T04:15:09.452Z,63.14
2023-06-06T04:17:36.079Z,61.75
2023-06-06T04:20:02.891Z,62.50
2023-06-06T04:22:29.689Z,62.98
2023-06-06T04:24:56.238Z,62.54
2023-06-06T04:27:22.954Z,61.74
2023-06-06T04:29:49.416Z,62.27
2023-06-06T04:32:15.870Z,62.74
2023-06-06T04:34:42.452Z,62.09
2023-06-06T04:37:08.918Z,63.13
2023-06-06T04:39:36.802Z,62.84
2023-06-06T04:42:05.171Z,62.48
2023-06-06T04:44:32.781Z,61.92
2023-06-06T04:46:59.374Z,62.04
2023-06-06T04:49:26.080Z,61.08
2023-06-06T04:51:52.644Z,61.68
2023-06-06T04:54:19.195Z,61.26
2023-06-06T04:56:46.016Z,60.29
2023-06-06T04:59:12.815Z,60.13
2023-06-06T05:01:39.548Z,61.51
2023-06-06T05:04:06.851Z,59.79
2023-06-06T05:06:34.618Z,60.73
2023-06-06T05:09:04.743Z,58.95
2023-06-06T05:11:31.446Z,58.67
2023-06-06T05:13:58.239Z,59.52
2023-06-06T05:16:24.975Z,59.92
2023-06-06T05:18:51.572Z,59.15
2023-06-06T05:21:19.890Z,57.99
2023-06-06T05:23:47.162Z,58.36
2023-06-06T05:26:14.353Z,58.14
2023-06-06T05:28:40.846Z,58.62
2023-06-06T05:31:07.315Z,57.49
2023-06-06T05:33:33.951Z,57.13
2023-06-06T05:36:00.937Z,57.72
2023-06-06T05:38:27.931Z,57.56
2023-06-06T05:40:54.393Z,57.58
2023-06-06T05:43:20.932Z,57.74
2023-06-06T05:45:47.682Z,56.98
2023-06-06T05:48:14.111Z,57.92
2023-06-06T05:50:40.616Z,56.53
2023-06-06T05:53:07.053Z,55.99
2023-06-06T05:55:35.145Z,54.98
2023-06-06T05:58:03.204Z,53.80
2023-06-06T06:00:32.325Z,53.66
2023-06-06T06:03:00.166Z,52.94
2023-06-06T06:05:28.367Z,52.99
2023-06-06T06:07:59.217Z,54.60
2023-06-06T06:10:27.035Z,52.58
2023-06-06T06:12:53.772Z,51.69
2023-06-06T06:15:20.596Z,52.44
2023-06-06T06:17:47.122Z,51.97
2023-06-06T06:20:16.351Z,51.55
2023-06-06T06:22:43.703Z,51.74
2023-06-06T06:25:11.391Z,51.12
2023-06-06T06:27:38.136Z,50.54
2023-06-06T06:30:05.089Z,50.09
2023-06-06T06:32:40.011Z,50.05
2023-06-06T06:35:09.199Z,50.63
2023-06-06T06:37:36.752Z,51.28
2023-06-06T06:40:05.027Z,50.01
2023-06-06T06:42:31.570Z,48.56
2023-06-06T06:44:58.062Z,48.22
2023-06-06T06:47:24.534Z,48.81
2023-06-06T06:49:51.137Z,47.73
2023-06-06T06:52:18.408Z,45.33
2023-06-06T06:54:51.955Z,45.54
2023-06-06T06:57:19.046Z,45.40
2023-06-06T06:59:45.709Z,44.71
2023-06-06T07:02:12.346Z,45.60
2023-06-06T07:04:39.123Z,44.47
2023-06-06T07:07:05.997Z,44.96
2023-06-06T07:09:32.599Z,44.83
2023-06-06T07:11:59.425Z,44.39
2023-06-06T07:14:26.166Z,43.97
2023-06-06T07:16:54.258Z,43.93
2023-06-06T07:19:22.192Z,43.45
2023-06-06T07:21:48.733Z,42.54
2023-06-06T07:24:15.241Z,43.17
2023-06-06T07:26:42.044Z,43.93
2023-06-06T07:29:08.567Z,44.86
2023-06-06T07:31:35.455Z,43.48
2023-06-06T07:34:02.222Z,42.44
2023-06-06T07:36:28.666Z,41.96
2023-06-06T07:38:55.507Z,41.44
2023-06-06T07:41:22.117Z,41.72
2023-06-06T07:43:48.673Z,40.79
2023-06-06T07:46:15.284Z,41.97
2023-06-06T07:48:41.772Z,40.88
2023-06-06T07:51:08.401Z,41.59
2023-06-06T07:53:34.960Z,42.22
2023-06-06T07:56:01.677Z,42.80
2023-06-06T07:58:39.309Z,41.49
2023-06-06T08:01:05.843Z,42.10
2023-06-06T08:03:32.607Z,41.77
2023-06-06T08:05:59.095Z,41.54
2023-06-06T08:08:26.001Z,40.83
2023-06-06T08:10:52.518Z,41.13
2023-06-06T08:13:21.031Z,40.68
2023-06-06T08:15:48.274Z,41.30
2023-06-06T08:18:15.249Z,40.99
2023-06-06T08:20:41.761Z,41.40
2023-06-06T08:23:10.222Z,41.02
2023-06-06T08:25:40.064Z,39.62
2023-06-06T08:28:07.733Z,39.60
2023-06-06T08:30:34.532Z,40.16
2023-06-06T08:33:01.197Z,40.43
2023-06-06T08:35:28.721Z,39.21
2023-06-06T08:37:55.383Z,42.69
2023-06-06T08:40:21.918Z,40.16
2023-06-06T08:42:51.110Z,40.35
2023-06-06T08:45:21.186Z,40.35
2023-06-06T08:47:49.417Z,39.29
2023-06-06T08:50:18.009Z,39.31
2023-06-06T08:52:44.849Z,40.17
2023-06-06T08:55:12.137Z,40.67
2023-06-06T08:57:40.154Z,39.14
2023-06-06T09:00:07.484Z,40.58
2023-06-06T09:02:34.507Z,39.78
2023-06-06T09:05:01.649Z,39.77
2023-06-06T09:07:29.604Z,38.56
2023-06-06T09:09:56.429Z,37.52
2023-06-06T09:12:22.991Z,37.00
2023-06-06T09:14:49.616Z,38.83
2023-06-06T09:17:16.613Z,37.24
2023-06-06T09:19:48.136Z,39.11
2023-06-06T09:22:14.757Z,38.39
2023-06-06T09:24:44.883Z,36.26
2023-06-06T09:27:30.908Z,39.15
2023-06-06T09:29:57.896Z,38.20
2023-06-06T09:32:31.410Z,38.39
2023-06-06T09:35:02.125Z,38.71
2023-06-06T09:37:29.507Z,37.83
2023-06-06T09:40:12.945Z,37.25
2023-06-06T09:42:39.915Z,36.87
2023-06-06T09:45:13.620Z,37.00
2023-06-06T09:47:41.817Z,36.98
2023-06-06T09:50:09.064Z,36.93
2023-06-06T09:52:35.848Z,38.14
2023-06-06T09:55:07.556Z,37.42
2023-06-06T09:57:38.835Z,37.24
2023-06-06T10:00:10.857Z,36.15
2023-06-06T10:02:47.150Z,36.03
2023-06-06T10:05:16.257Z,37.33
2023-06-06T10:07:45.948Z,35.53
2023-06-06T10:10:18.380Z,35.75
2023-06-06T10:12:45.746Z,35.24
2023-06-06T10:15:13.318Z,35.75
2023-06-06T10:17:42.086Z,35.74
2023-06-06T10:20:10.855Z,36.78
2023-06-06T10:22:38.268Z,35.47
2023-06-06T10:25:13.453Z,34.83
2023-06-06T10:28:00.328Z,34.67
2023-06-06T10:30:52.682Z,34.69
2023-06-06T10:33:43.888Z,35.20
2023-06-06T10:36:14.096Z,34.77
2023-06-06T10:38:40.612Z,34.83
2023-06-06T10:41:16.085Z,34.90
2023-06-06T10:43:42.879Z,35.46
2023-06-06T10:46:10.451Z,34.97
2023-06-06T10:48:44.228Z,34.80
2023-06-06T10:51:31.016Z,35.47
2023-06-06T10:54:22.343Z,35.99
2023-06-06T10:56:49.173Z,35.55
2023-06-06T10:59:15.917Z,35.33
2023-06-06T11:01:43.988Z,35.32
2023-06-06T11:04:24.734Z,35.31
2023-06-06T11:06:59.158Z,34.92
2023-06-06T11:09:29.459Z,35.62
2023-06-06T11:12:14.464Z,34.48
2023-06-06T11:14:59.643Z,33.79
2023-06-06T11:17:27.897Z,36.07
2023-06-06T11:19:58.517Z,33.55
2023-06-06T11:22:26.755Z,33.00
2023-06-06T11:24:56.760Z,33.31
2023-06-06T11:27:23.399Z,34.42
2023-06-06T11:29:53.980Z,33.93
2023-06-06T11:32:21.055Z,33.35
2023-06-06T11:34:47.603Z,34.57
2023-06-06T11:37:14.762Z,33.83
2023-06-06T11:39:41.770Z,34.42
2023-06-06T11:42:17.401Z,32.04
2023-06-06T11:44:44.357Z,34.22
2023-06-06T11:47:11.270Z,33.66
2023-06-06T11:49:45.345Z,32.55
2023-06-06T11:52:15.730Z,34.49
2023-06-06T11:54:52.415Z,33.86
2023-06-06T11:57:19.198Z,33.72
2023-06-06T11:59:56.580Z,32.21
2023-06-06T12:02:23.186Z,34.68
2023-06-06T12:04:49.814Z,34.05
2023-06-06T12:07:16.422Z,32.80
2023-06-06T12:09:42.898Z,33.47
2023-06-06T12:12:10.548Z,31.17
2023-06-06T12:14:37.300Z,30.34
2023-06-06T12:17:10.390Z,32.06
2023-06-06T12:19:38.034Z,32.32
2023-06-06T12:22:05.203Z,31.58
2023-06-06T12:24:33.286Z,32.13
2023-06-06T12:27:01.142Z,29.89
2023-06-06T12:29:28.977Z,31.63
2023-06-06T12:32:14.081Z,30.59
2023-06-06T12:34:48.230Z,32.29
2023-06-06T12:37:15.417Z,31.73
2023-06-06T12:39:41.874Z,31.27
2023-06-06T12:42:15.359Z,30.67
2023-06-06T12:44:42.585Z,30.61
2023-06-06T12:47:09.191Z,31.38
2023-06-06T12:49:35.891Z,29.81
2023-06-06T12:52:02.368Z,30.33
2023-06-06T12:54:28.930Z,31.42
2023-06-06T12:56:55.518Z,32.18
2023-06-06T12:59:22.150Z,31.50
2023-06-06T13:01:48.911Z,32.40
2023-06-06T13:04:15.774Z,32.26
2023-06-06T13:06:42.627Z,34.24
2023-06-06T13:09:09.348Z,34.27
2023-06-06T13:11:36.103Z,34.40
2023-06-06T13:14:02.946Z,34.54
2023-06-06T13:16:29.568Z,34.24
2023-06-06T13:18:56.097Z,34.68
2023-06-06T13:21:22.785Z,34.82
2023-06-06T13:23:51.648Z,35.26
2023-06-06T13:26:19.947Z,35.41
2023-06-06T13:28:46.512Z,36.00
2023-06-06T13:31:13.684Z,37.17
2023-06-06T13:33:40.494Z,36.51
2023-06-06T13:36:07.387Z,36.99
2023-06-06T13:38:34.109Z,36.37
2023-06-06T13:41:00.896Z,36.60
2023-06-06T13:43:27.385Z,36.69
2023-06-06T13:45:54.228Z,36.59
2023-06-06T13:48:20.936Z,36.94
2023-06-06T13:50:47.705Z,37.44
2023-06-06T13:53:14.314Z,37.18
2023-06-06T13:55:41.007Z,37.45
2023-06-06T13:58:07.867Z,38.45
2023-06-06T14:00:34.424Z,39.86
2023-06-06T14:03:01.370Z,38.42
2023-06-06T14:05:29.298Z,38.94
2023-06-06T14:07:56.234Z,39.08
2023-06-06T14:10:23.111Z,38.80
2023-06-06T14:12:50.013Z,39.89
2023-06-06T14:15:16.739Z,39.42
2023-06-06T14:17:43.317Z,38.53
2023-06-06T14:20:10.768Z,40.71
2023-06-06T14:22:37.223Z,39.61
2023-06-06T14:25:03.846Z,39.72
2023-06-06T14:27:32.111Z,39.14
2023-06-06T14:29:59.299Z,39.14
2023-06-06T14:32:28.107Z,38.80
2023-06-06T14:34:54.706Z,39.83
2023-06-06T14:37:21.246Z,38.79
2023-06-06T14:39:47.772Z,39.29
2023-06-06T14:42:14.319Z,39.56
2023-06-06T14:44:41.128Z,40.46
2023-06-06T14:47:08.296Z,39.98
2023-06-06T14:49:35.761Z,40.99
2023-06-06T14:52:02.514Z,40.96
2023-06-06T14:54:29.389Z,41.11
2023-06-06T14:56:55.893Z,41.61
2023-06-06T14:59:22.425Z,41.50
2023-06-06T15:01:49.235Z,41.26
2023-06-06T15:04:16.170Z,41.16
2023-06-06T15:06:42.738Z,41.02
2023-06-06T15:09:09.262Z,41.86
2023-06-06T15:11:35.667Z,41.93
2023-06-06T15:14:06.247Z,41.40
2023-06-06T15:16:32.998Z,41.17
2023-06-06T15:18:59.727Z,41.26
2023-06-06T15:21:26.224Z,40.96
2023-06-06T15:23:55.766Z,41.35
2023-06-06T15:26:23.428Z,41.64
2023-06-06T15:28:50.627Z,41.86
2023-06-06T15:31:17.229Z,42.81
2023-06-06T15:33:43.641Z,42.10
2023-06-06T15:36:10.304Z,42.17
2023-06-06T15:38:36.699Z,41.80
2023-06-06T15:41:03.363Z,42.22
2023-06-06T15:43:29.851Z,41.82
2023-06-06T15:45:56.442Z,42.71
2023-06-06T15:48:22.924Z,41.74
2023-06-06T15:50:49.657Z,42.36
2023-06-06T15:53:16.478Z,42.27
2023-06-06T15:55:43.246Z,42.15
2023-06-06T15:58:09.964Z,43.57
2023-06-06T16:00:36.866Z,43.20
2023-06-06T16:03:03.436Z,42.43
2023-06-06T16:05:32.412Z,42.12
2023-06-06T16:07:59.903Z,42.73
2023-06-06T16:10:26.408Z,42.77
2023-06-06T16:12:53.180Z,43.76
2023-06-06T16:15:19.672Z,43.54
2023-06-06T16:17:46.548Z,43.55
2023-06-06T16:20:13.449Z,43.02
2023-06-06T16:22:40.303Z,43.30
2023-06-06T16:25:07.074Z,43.86
2023-06-06T16:27:34.109Z,42.98
2023-06-06T16:30:00.905Z,43.27
2023-06-06T16:32:27.686Z,43.72
2023-06-06T16:34:54.145Z,43.34
2023-06-06T16:37:20.694Z,44.09
2023-06-06T16:39:47.453Z,43.63
2023-06-06T16:42:15.273Z,44.08
2023-06-06T16:44:42.053Z,44.13
2023-06-06T16:47:08.646Z,44.22
2023-06-06T16:49:35.306Z,44.03
2023-06-06T16:52:01.831Z,44.28
2023-06-06T16:54:28.333Z,44.75
2023-06-06T16:56:55.141Z,44.89
2023-06-06T16:59:21.653Z,44.97
2023-06-06T17:01:48.367Z,44.44
2023-06-06T17:04:15.466Z,44.60
2023-06-06T17:06:42.406Z,44.93
2023-06-06T17:09:08.857Z,45.10
2023-06-06T17:11:35.680Z,44.74
2023-06-06T17:14:02.452Z,45.43
2023-06-06T17:16:29.036Z,46.10
2023-06-06T17:18:55.889Z,46.50
2023-06-06T17:21:22.518Z,45.58
2023-06-06T17:23:49.050Z,46.92
2023-06-06T17:26:15.852Z,47.33
2023-06-06T17:28:42.400Z,47.39
2023-06-06T17:31:08.994Z,47.99
2023-06-06T17:33:35.517Z,46.78
2023-06-06T17:36:01.952Z,47.58
2023-06-06T17:38:28.823Z,47.21
2023-06-06T17:40:55.414Z,46.69
2023-06-06T17:43:22.174Z,46.53
2023-06-06T17:45:48.922Z,47.98
2023-06-06T17:48:15.252Z,47.22
2023-06-06T17:50:42.093Z,47.39
2023-06-06T17:53:09.258Z,47.57
2023-06-06T17:55:44.519Z,47.36
2023-06-06T17:58:11.036Z,48.98
2023-06-06T18:00:37.804Z,49.26
2023-06-06T18:03:04.329Z,50.17
2023-06-06T18:05:34.908Z,49.30
2023-06-06T18:08:06.378Z,51.44
2023-06-06T18:10:32.949Z,51.23
2023-06-06T18:13:01.077Z,51.60
2023-06-06T18:15:27.634Z,50.77
2023-06-06T18:17:54.373Z,50.29
2023-06-06T18:20:21.180Z,49.20
2023-06-06T18:22:48.004Z,49.77
2023-06-06T18:25:14.794Z,50.11
2023-06-06T18:27:41.779Z,50.21
2023-06-06T18:30:08.746Z,50.11
2023-06-06T18:32:36.296Z,49.71
2023-06-06T18:35:05.310Z,50.91
2023-06-06T18:37:32.325Z,50.61
2023-06-06T18:39:58.801Z,50.65
2023-06-06T18:42:25.559Z,50.86
2023-06-06T18:44:52.318Z,50.44
2023-06-06T18:47:18.759Z,50.86
2023-06-06T18:49:45.669Z,50.82
2023-06-06T18:52:12.676Z,51.90
2023-06-06T18:54:39.214Z,51.97
2023-06-06T18:57:06.154Z,52.64
2023-06-06T18:59:33.380Z,52.63
2023-06-06T19:01:59.988Z,52.57
2023-06-06T19:04:26.928Z,52.43
2023-06-06T19:06:54.768Z,53.05
2023-06-06T19:09:21.533Z,52.33
2023-06-06T19:11:48.205Z,52.86
2023-06-06T19:14:15.038Z,54.56
2023-06-06T19:16:41.913Z,54.73
2023-06-06T19:19:08.493Z,54.25
2023-06-06T19:21:35.144Z,54.05
2023-06-06T19:24:01.691Z,54.67
2023-06-06T19:26:28.261Z,55.36
2023-06-06T19:28:56.252Z,56.46
2023-06-06T19:31:22.759Z,56.46
2023-06-06T19:33:49.246Z,56.84
2023-06-06T19:36:16.034Z,58.04
2023-06-06T19:38:42.507Z,57.95
2023-06-06T19:41:09.275Z,58.75
2023-06-06T19:43:35.918Z,58.06
2023-06-06T19:46:02.444Z,59.11
2023-06-06T19:48:28.966Z,59.35
2023-06-06T19:50:55.636Z,58.01
2023-06-06T19:53:22.194Z,58.70
2023-06-06T19:55:48.686Z,58.36
2023-06-06T19:58:15.323Z,58.01
2023-06-06T20:00:41.905Z,59.01
2023-06-06T20:03:08.868Z,59.25
2023-06-06T20:05:35.772Z,59.00
2023-06-06T20:08:02.158Z,59.23
2023-06-06T20:10:29.597Z,58.65
2023-06-06T20:12:56.576Z,58.18
2023-06-06T20:15:23.346Z,59.12
2023-06-06T20:17:52.188Z,58.78
2023-06-06T20:20:19.994Z,58.71
2023-06-06T20:22:46.605Z,58.80
2023-06-06T20:25:13.262Z,58.11
2023-06-06T20:27:40.010Z,58.58
2023-06-06T20:30:07.515Z,58.10
2023-06-06T20:32:34.354Z,57.96
2023-06-06T20:35:01.120Z,58.27
2023-06-06T20:37:28.018Z,57.95
2023-06-06T20:39:54.661Z,58.06
2023-06-06T20:42:21.602Z,58.41
2023-06-06T20:44:48.364Z,59.52
2023-06-06T20:47:15.067Z,59.79
2023-06-06T20:49:41.682Z,59.65
2023-06-06T20:52:08.592Z,59.69
2023-06-06T20:54:35.260Z,59.98
2023-06-06T20:57:01.900Z,59.93
2023-06-06T20:59:28.445Z,59.36
2023-06-06T21:01:55.039Z,59.10
2023-06-06T21:04:23.080Z,59.04
2023-06-06T21:06:49.814Z,58.94
2023-06-06T21:09:16.600Z,58.07
2023-06-06T21:11:43.080Z,58.28
2023-06-06T21:14:09.882Z,57.94
2023-06-06T21:16:36.699Z,57.79
2023-06-06T21:19:08.631Z,58.45
2023-06-06T21:21:35.991Z,58.50
2023-06-06T21:24:03.514Z,58.35
2023-06-06T21:26:30.098Z,57.74
2023-06-06T21:28:56.822Z,58.40
2023-06-06T21:31:23.634Z,58.41
2023-06-06T21:33:50.214Z,58.84
2023-06-06T21:36:16.732Z,59.11
2023-06-06T21:38:43.213Z,59.31
2023-06-06T21:41:11.086Z,59.41
2023-06-06T21:43:38.000Z,59.88
2023-06-06T21:46:04.609Z,59.85
2023-06-06T21:48:31.228Z,59.11
2023-06-06T21:50:59.058Z,59.21
2023-06-06T21:53:25.824Z,59.49
2023-06-06T21:55:52.190Z,59.54
2023-06-06T21:58:18.670Z,59.33
2023-06-06T22:00:45.394Z,59.39
2023-06-06T22:03:12.025Z,59.38
2023-06-06T22:05:40.976Z,58.75
2023-06-06T22:08:07.573Z,58.16
2023-06-06T22:10:35.714Z,57.28
2023-06-06T22:13:02.300Z,56.19
2023-06-06T22:15:28.958Z,55.46
2023-06-06T22:17:55.472Z,54.57
2023-06-06T22:20:23.051Z,54.24
2023-06-06T22:22:49.795Z,54.57
2023-06-06T22:25:16.611Z,53.18
2023-06-06T22:27:43.377Z,53.06
2023-06-06T22:30:10.632Z,52.97
2023-06-06T22:32:37.458Z,52.36
2023-06-06T22:35:04.352Z,52.22
2023-06-06T22:37:30.681Z,52.28
2023-06-06T22:39:59.557Z,53.39
2023-06-06T22:42:26.084Z,52.73
2023-06-06T22:44:52.585Z,53.11
2023-06-06T22:47:19.426Z,52.42
2023-06-06T22:49:45.937Z,52.59
2023-06-06T22:52:13.341Z,53.02
2023-06-06T22:54:40.248Z,51.83
2023-06-06T22:57:07.217Z,52.93
2023-06-06T22:59:34.051Z,52.92
2023-06-06T23:02:01.374Z,53.11
2023-06-06T23:04:28.180Z,54.46
2023-06-06T23:06:54.756Z,53.64
2023-06-06T23:09:21.504Z,53.40
2023-06-06T23:11:50.194Z,53.37
2023-06-06T23:14:17.623Z,53.09
2023-06-06T23:16:44.416Z,53.71
2023-06-06T23:19:10.897Z,53.28
2023-06-06T23:21:37.555Z,53.60
2023-06-06T23:24:05.233Z,52.83
2023-06-06T23:26:32.166Z,53.32
2023-06-06T23:28:58.565Z,53.03
2023-06-06T23:31:25.412Z,53.60
2023-06-06T23:33:51.940Z,53.46
2023-06-06T23:36:19.075Z,54.56
2023-06-06T23:38:45.681Z,53.66
2023-06-06T23:41:12.161Z,54.09
2023-06-06T23:43:38.966Z,54.36
2023-06-06T23:46:05.657Z,54.67
2023-06-06T23:48:32.369Z,54.43
2023-06-06T23:50:59.140Z,54.41
2023-06-06T23:53:25.491Z,54.52
2023-06-06T23:55:52.039Z,54.91
2023-06-06T23:58:18.588Z,54.46
